sensor_id;sensor_type;location;lat;lon;timestamp;pressure;altitude;pressure_sealevel;temperature;humidity
18821;BME280;9539;59.332;18.034;2022-11-18T00:01:34;101496.66;;;3.02;100.00
18821;BME280;9539;59.332;18.034;2022-11-18T00:04:01;101493.63;;;3.23;100.00
18821;BME280;9539;59.332;18.034;2022-11-18T00:06:29;101496.38;;;3.17;100.00
18821;BME280;9539;59.332;18.034;2022-11-18T00:08:57;101492.03;;;3.16;100.00
18821;BME280;9539;59.332;18.034;2022-11-18T00:11:26;101492.78;;;3.22;100.00
18821;BME280;9539;59.332;18.034;2022-11-18T00:14:11;101493.00;;;3.10;100.00
18821;BME280;9539;59.332;18.034;2022-11-18T00:16:47;101482.72;;;2.98;100.00
18821;BME280;9539;59.332;18.034;2022-11-18T00:19:14;101484.31;;;3.07;100.00
18821;BME280;9539;59.332;18.034;2022-11-18T00:21:41;101493.53;;;3.28;100.00
18821;BME280;9539;59.332;18.034;2022-11-18T00:24:08;101477.06;;;3.21;100.00
18821;BME280;9539;59.332;18.034;2022-11-18T00:26:35;101477.53;;;3.41;100.00
18821;BME280;9539;59.332;18.034;2022-11-18T00:29:02;101485.47;;;3.38;100.00
18821;BME280;9539;59.332;18.034;2022-11-18T00:31:29;101489.66;;;3.48;100.00
18821;BME280;9539;59.332;18.034;2022-11-18T00:33:57;101497.56;;;3.45;100.00
18821;BME280;9539;59.332;18.034;2022-11-18T00:36:24;101491.31;;;3.05;100.00
18821;BME280;9539;59.332;18.034;2022-11-18T00:38:51;101489.75;;;2.98;100.00
18821;BME280;9539;59.332;18.034;2022-11-18T00:41:17;101492.34;;;2.98;100.00
18821;BME280;9539;59.332;18.034;2022-11-18T00:43:44;101491.63;;;2.88;100.00
18821;BME280;9539;59.332;18.034;2022-11-18T00:46:11;101490.66;;;2.94;100.00
18821;BME280;9539;59.332;18.034;2022-11-18T00:48:38;101493.69;;;3.20;100.00
18821;BME280;9539;59.332;18.034;2022-11-18T00:51:08;101498.78;;;3.29;100.00
18821;BME280;9539;59.332;18.034;2022-11-18T00:53:36;101492.69;;;3.26;100.00
18821;BME280;9539;59.332;18.034;2022-11-18T00:56:03;101499.81;;;3.19;100.00
18821;BME280;9539;59.332;18.034;2022-11-18T00:58:30;101481.56;;;3.14;100.00
18821;BME280;9539;59.332;18.034;2022-11-18T01:00:57;101500.66;;;3.22;100.00
18821;BME280;9539;59.332;18.034;2022-11-18T01:03:23;101502.66;;;3.08;100.00
18821;BME280;9539;59.332;18.034;2022-11-18T01:05:50;101507.50;;;3.30;100.00
18821;BME280;9539;59.332;18.034;2022-11-18T01:08:19;101515.50;;;3.22;100.00
18821;BME280;9539;59.332;18.034;2022-11-18T01:10:47;101516.41;;;3.21;100.00
18821;BME280;9539;59.332;18.034;2022-11-18T01:13:17;101515.78;;;3.07;100.00
18821;BME280;9539;59.332;18.034;2022-11-18T01:15:45;101520.91;;;3.13;100.00
18821;BME280;9539;59.332;18.034;2022-11-18T01:18:13;101523.50;;;3.14;100.00
18821;BME280;9539;59.332;18.034;2022-11-18T01:20:40;101523.34;;;3.24;100.00
18821;BME280;9539;59.332;18.034;2022-11-18T01:23:06;101525.13;;;3.21;100.00
18821;BME280;9539;59.332;18.034;2022-11-18T01:25:36;101522.56;;;3.18;100.00
18821;BME280;9539;59.332;18.034;2022-11-18T01:28:03;101524.47;;;3.10;100.00
18821;BME280;9539;59.332;18.034;2022-11-18T01:30:32;101522.22;;;2.89;100.00
18821;BME280;9539;59.332;18.034;2022-11-18T01:32:59;101514.25;;;2.95;100.00
18821;BME280;9539;59.332;18.034;2022-11-18T01:35:26;101527.19;;;3.04;100.00
18821;BME280;9539;59.332;18.034;2022-11-18T01:37:52;101521.13;;;3.01;100.00
18821;BME280;9539;59.332;18.034;2022-11-18T01:40:19;101521.97;;;3.04;100.00
18821;BME280;9539;59.332;18.034;2022-11-18T01:42:48;101519.47;;;2.95;100.00
18821;BME280;9539;59.332;18.034;2022-11-18T01:45:24;101520.03;;;3.12;100.00
18821;BME280;9539;59.332;18.034;2022-11-18T01:47:55;101522.66;;;3.12;100.00
18821;BME280;9539;59.332;18.034;2022-11-18T01:50:25;101512.88;;;3.22;100.00
18821;BME280;9539;59.332;18.034;2022-11-18T01:52:53;101526.53;;;3.41;100.00
18821;BME280;9539;59.332;18.034;2022-11-18T01:55:25;101534.84;;;3.16;100.00
18821;BME280;9539;59.332;18.034;2022-11-18T01:58:00;101531.53;;;3.05;100.00
18821;BME280;9539;59.332;18.034;2022-11-18T02:00:28;101525.50;;;3.00;100.00
18821;BME280;9539;59.332;18.034;2022-11-18T02:02:56;101516.56;;;3.12;100.00
18821;BME280;9539;59.332;18.034;2022-11-18T02:05:24;101521.88;;;3.09;100.00
18821;BME280;9539;59.332;18.034;2022-11-18T02:07:51;101521.88;;;3.09;100.00
18821;BME280;9539;59.332;18.034;2022-11-18T02:10:21;101523.50;;;3.14;100.00
18821;BME280;9539;59.332;18.034;2022-11-18T02:12:49;101526.28;;;3.05;100.00
18821;BME280;9539;59.332;18.034;2022-11-18T02:15:21;101521.97;;;3.03;100.00
18821;BME280;9539;59.332;18.034;2022-11-18T02:17:57;101522.94;;;2.97;100.00
18821;BME280;9539;59.332;18.034;2022-11-18T02:20:32;101518.25;;;3.14;100.00
18821;BME280;9539;59.332;18.034;2022-11-18T02:23:29;101518.25;;;3.16;100.00
18821;BME280;9539;59.332;18.034;2022-11-18T02:26:35;101515.09;;;2.96;100.00
18821;BME280;9539;59.332;18.034;2022-11-18T02:29:09;101520.16;;;3.06;100.00
18821;BME280;9539;59.332;18.034;2022-11-18T02:31:45;101507.97;;;3.04;100.00
18821;BME280;9539;59.332;18.034;2022-11-18T02:34:17;101518.34;;;3.10;100.00
18821;BME280;9539;59.332;18.034;2022-11-18T02:36:50;101515.84;;;3.04;100.00
18821;BME280;9539;59.332;18.034;2022-11-18T02:39:22;101522.88;;;3.02;100.00
18821;BME280;9539;59.332;18.034;2022-11-18T02:41:53;101527.09;;;3.09;100.00
18821;BME280;9539;59.332;18.034;2022-11-18T02:44:24;101512.47;;;2.96;100.00
18821;BME280;9539;59.332;18.034;2022-11-18T02:46:55;101510.63;;;3.01;100.00
18821;BME280;9539;59.332;18.034;2022-11-18T02:49:28;101508.91;;;3.00;100.00
18821;BME280;9539;59.332;18.034;2022-11-18T02:51:58;101524.50;;;3.07;100.00
18821;BME280;9539;59.332;18.034;2022-11-18T02:54:27;101530.72;;;3.02;100.00
18821;BME280;9539;59.332;18.034;2022-11-18T02:56:54;101525.34;;;3.09;100.00
18821;BME280;9539;59.332;18.034;2022-11-18T02:59:26;101526.25;;;3.07;100.00
18821;BME280;9539;59.332;18.034;2022-11-18T03:01:53;101519.13;;;3.16;100.00
18821;BME280;9539;59.332;18.034;2022-11-18T03:04:21;101533.03;;;3.18;100.00
18821;BME280;9539;59.332;18.034;2022-11-18T03:06:55;101534.03;;;3.11;100.00
18821;BME280;9539;59.332;18.034;2022-11-18T03:09:28;101513.50;;;2.87;100.00
18821;BME280;9539;59.332;18.034;2022-11-18T03:12:05;101532.72;;;2.86;100.00
18821;BME280;9539;59.332;18.034;2022-11-18T03:14:42;101525.94;;;2.74;100.00
18821;BME280;9539;59.332;18.034;2022-11-18T03:17:16;101523.31;;;2.74;100.00
18821;BME280;9539;59.332;18.034;2022-11-18T03:19:57;101523.97;;;2.87;100.00
18821;BME280;9539;59.332;18.034;2022-11-18T03:22:30;101525.63;;;2.93;100.00
18821;BME280;9539;59.332;18.034;2022-11-18T03:25:03;101532.34;;;3.09;100.00
18821;BME280;9539;59.332;18.034;2022-11-18T03:27:34;101503.00;;;2.87;100.00
18821;BME280;9539;59.332;18.034;2022-11-18T03:30:05;101531.75;;;2.93;100.00
18821;BME280;9539;59.332;18.034;2022-11-18T03:32:38;101531.81;;;2.89;100.00
18821;BME280;9539;59.332;18.034;2022-11-18T03:35:09;101521.66;;;2.69;100.00
18821;BME280;9539;59.332;18.034;2022-11-18T03:37:37;101528.56;;;2.73;100.00
18821;BME280;9539;59.332;18.034;2022-11-18T03:40:11;101521.59;;;2.73;100.00
18821;BME280;9539;59.332;18.034;2022-11-18T03:42:42;101526.72;;;2.79;100.00
18821;BME280;9539;59.332;18.034;2022-11-18T03:45:15;101519.50;;;2.94;100.00
18821;BME280;9539;59.332;18.034;2022-11-18T03:47:46;101533.25;;;3.06;100.00
18821;BME280;9539;59.332;18.034;2022-11-18T03:50:20;101531.50;;;3.07;100.00
18821;BME280;9539;59.332;18.034;2022-11-18T03:52:50;101532.38;;;3.06;100.00
18821;BME280;9539;59.332;18.034;2022-11-18T03:55:22;101531.41;;;3.11;100.00
18821;BME280;9539;59.332;18.034;2022-11-18T03:57:54;101524.41;;;3.12;100.00
18821;BME280;9539;59.332;18.034;2022-11-18T04:00:29;101534.97;;;3.10;100.00
18821;BME280;9539;59.332;18.034;2022-11-18T04:02:57;101524.72;;;2.95;100.00
18821;BME280;9539;59.332;18.034;2022-11-18T04:05:24;101522.88;;;3.02;100.00
18821;BME280;9539;59.332;18.034;2022-11-18T04:07:55;101523.84;;;2.96;100.00
18821;BME280;9539;59.332;18.034;2022-11-18T04:10:26;101528.13;;;3.00;100.00
18821;BME280;9539;59.332;18.034;2022-11-18T04:13:00;101522.78;;;3.05;100.00
18821;BME280;9539;59.332;18.034;2022-11-18T04:15:31;101525.50;;;3.00;100.00
18821;BME280;9539;59.332;18.034;2022-11-18T04:17:58;101530.88;;;2.93;100.00
18821;BME280;9539;59.332;18.034;2022-11-18T04:20:25;101536.88;;;2.99;100.00
18821;BME280;9539;59.332;18.034;2022-11-18T04:22:53;101529.88;;;3.00;100.00
18821;BME280;9539;59.332;18.034;2022-11-18T04:25:20;101525.53;;;2.99;100.00
18821;BME280;9539;59.332;18.034;2022-11-18T04:27:48;101546.25;;;3.12;100.00
18821;BME280;9539;59.332;18.034;2022-11-18T04:30:16;101539.88;;;3.29;100.00
18821;BME280;9539;59.332;18.034;2022-11-18T04:32:44;101546.13;;;3.21;100.00
18821;BME280;9539;59.332;18.034;2022-11-18T04:35:11;101539.44;;;3.04;100.00
18821;BME280;9539;59.332;18.034;2022-11-18T04:37:38;101538.72;;;2.94;100.00
18821;BME280;9539;59.332;18.034;2022-11-18T04:40:06;101544.59;;;3.08;100.00
18821;BME280;9539;59.332;18.034;2022-11-18T04:42:32;101535.75;;;3.14;100.00
18821;BME280;9539;59.332;18.034;2022-11-18T04:44:59;101549.84;;;3.08;100.00
18821;BME280;9539;59.332;18.034;2022-11-18T04:47:26;101548.94;;;3.11;100.00
18821;BME280;9539;59.332;18.034;2022-11-18T04:49:54;101549.88;;;3.05;100.00
18821;BME280;9539;59.332;18.034;2022-11-18T04:52:21;101549.75;;;3.13;100.00
18821;BME280;9539;59.332;18.034;2022-11-18T04:54:48;101544.59;;;3.08;100.00
18821;BME280;9539;59.332;18.034;2022-11-18T04:57:15;101544.44;;;3.17;100.00
18821;BME280;9539;59.332;18.034;2022-11-18T04:59:41;101553.38;;;3.06;100.00
18821;BME280;9539;59.332;18.034;2022-11-18T05:02:08;101560.25;;;3.13;100.00
18821;BME280;9539;59.332;18.034;2022-11-18T05:04:35;101555.22;;;3.01;100.00
18821;BME280;9539;59.332;18.034;2022-11-18T05:07:04;101552.66;;;2.98;100.00
18821;BME280;9539;59.332;18.034;2022-11-18T05:09:32;101558.72;;;2.98;100.00
18821;BME280;9539;59.332;18.034;2022-11-18T05:11:59;101555.97;;;3.07;100.00
18821;BME280;9539;59.332;18.034;2022-11-18T05:14:43;101561.31;;;3.03;100.00
18821;BME280;9539;59.332;18.034;2022-11-18T05:17:10;101562.81;;;3.17;100.00
18821;BME280;9539;59.332;18.034;2022-11-18T05:19:37;101542.97;;;3.00;100.00
18821;BME280;9539;59.332;18.034;2022-11-18T05:22:06;101572.69;;;3.02;100.00
18821;BME280;9539;59.332;18.034;2022-11-18T05:24:33;101569.06;;;3.07;100.00
18821;BME280;9539;59.332;18.034;2022-11-18T05:27:00;101571.00;;;2.98;100.00
18821;BME280;9539;59.332;18.034;2022-11-18T05:29:27;101569.09;;;3.06;100.00
18821;BME280;9539;59.332;18.034;2022-11-18T05:31:53;101571.69;;;3.07;100.00
18821;BME280;9539;59.332;18.034;2022-11-18T05:34:20;101575.06;;;3.15;100.00
18821;BME280;9539;59.332;18.034;2022-11-18T05:36:47;101579.56;;;3.09;100.00
18821;BME280;9539;59.332;18.034;2022-11-18T05:39:15;101572.72;;;2.99;100.00
18821;BME280;9539;59.332;18.034;2022-11-18T05:41:42;101583.03;;;3.09;100.00
18821;BME280;9539;59.332;18.034;2022-11-18T05:44:26;101580.41;;;3.09;100.00
18821;BME280;9539;59.332;18.034;2022-11-18T05:46:53;101584.84;;;3.06;100.00
18821;BME280;9539;59.332;18.034;2022-11-18T05:49:21;101584.72;;;3.13;100.00
18821;BME280;9539;59.332;18.034;2022-11-18T05:51:47;101581.28;;;3.10;100.00
18821;BME280;9539;59.332;18.034;2022-11-18T05:54:18;101586.66;;;3.01;100.00
18821;BME280;9539;59.332;18.034;2022-11-18T05:56:45;101589.03;;;3.17;100.00
18821;BME280;9539;59.332;18.034;2022-11-18T05:59:11;101580.56;;;2.99;100.00
18821;BME280;9539;59.332;18.034;2022-11-18T06:01:43;101591.81;;;3.07;100.00
18821;BME280;9539;59.332;18.034;2022-11-18T06:04:14;101591.88;;;3.04;100.00
18821;BME280;9539;59.332;18.034;2022-11-18T06:06:43;101599.63;;;3.10;100.00
18821;BME280;9539;59.332;18.034;2022-11-18T06:09:14;101583.25;;;2.97;100.00
18821;BME280;9539;59.332;18.034;2022-11-18T06:11:46;101591.94;;;2.99;100.00
18821;BME280;9539;59.332;18.034;2022-11-18T06:14:19;101607.75;;;2.93;100.00
18821;BME280;9539;59.332;18.034;2022-11-18T06:16:50;101596.41;;;2.93;100.00
18821;BME280;9539;59.332;18.034;2022-11-18T06:19:19;101598.44;;;2.75;100.00
18821;BME280;9539;59.332;18.034;2022-11-18T06:21:46;101608.75;;;2.86;100.00
18821;BME280;9539;59.332;18.034;2022-11-18T06:24:13;101604.63;;;2.71;100.00
18821;BME280;9539;59.332;18.034;2022-11-18T06:26:41;101620.47;;;2.61;100.00
18821;BME280;9539;59.332;18.034;2022-11-18T06:29:12;101623.16;;;2.56;100.00
18821;BME280;9539;59.332;18.034;2022-11-18T06:31:40;101623.25;;;2.52;100.00
18821;BME280;9539;59.332;18.034;2022-11-18T06:34:07;101621.50;;;2.51;100.00
18821;BME280;9539;59.332;18.034;2022-11-18T06:36:34;101629.31;;;2.54;100.00
18821;BME280;9539;59.332;18.034;2022-11-18T06:39:02;101630.25;;;2.50;100.00
18821;BME280;9539;59.332;18.034;2022-11-18T06:41:29;101627.63;;;2.51;100.00
18821;BME280;9539;59.332;18.034;2022-11-18T06:43:56;101631.31;;;2.35;100.00
18821;BME280;9539;59.332;18.034;2022-11-18T06:46:24;101628.75;;;2.32;100.00
18821;BME280;9539;59.332;18.034;2022-11-18T06:49:08;101628.75;;;2.32;100.00
18821;BME280;9539;59.332;18.034;2022-11-18T06:51:35;101641.78;;;2.36;100.00
18821;BME280;9539;59.332;18.034;2022-11-18T06:54:03;101614.78;;;2.30;100.00
18821;BME280;9539;59.332;18.034;2022-11-18T06:56:30;101635.56;;;2.45;100.00
18821;BME280;9539;59.332;18.034;2022-11-18T06:58:57;101638.19;;;2.45;100.00
18821;BME280;9539;59.332;18.034;2022-11-18T07:01:27;101637.31;;;2.45;100.00
18821;BME280;9539;59.332;18.034;2022-11-18T07:03:56;101654.72;;;2.49;100.00
18821;BME280;9539;59.332;18.034;2022-11-18T07:06:25;101655.66;;;2.43;100.00
18821;BME280;9539;59.332;18.034;2022-11-18T07:08:52;101653.09;;;2.38;100.00
18821;BME280;9539;59.332;18.034;2022-11-18T07:11:21;101651.38;;;2.36;100.00
18821;BME280;9539;59.332;18.034;2022-11-18T07:13:49;101654.06;;;2.31;100.00
18821;BME280;9539;59.332;18.034;2022-11-18T07:16:17;101646.91;;;2.44;100.00
18821;BME280;9539;59.332;18.034;2022-11-18T07:18:47;101654.88;;;2.35;100.00
18821;BME280;9539;59.332;18.034;2022-11-18T07:21:15;101659.16;;;2.40;100.00
18821;BME280;9539;59.332;18.034;2022-11-18T07:23:42;101667.84;;;2.46;100.00
18821;BME280;9539;59.332;18.034;2022-11-18T07:26:10;101661.59;;;2.56;100.00
18821;BME280;9539;59.332;18.034;2022-11-18T07:28:37;101656.34;;;2.59;100.00
18821;BME280;9539;59.332;18.034;2022-11-18T07:31:06;101656.28;;;2.62;100.00
18821;BME280;9539;59.332;18.034;2022-11-18T07:33:35;101667.31;;;2.85;100.00
18821;BME280;9539;59.332;18.034;2022-11-18T07:36:06;101665.69;;;2.78;100.00
18821;BME280;9539;59.332;18.034;2022-11-18T07:38:33;101670.06;;;2.77;100.00
18821;BME280;9539;59.332;18.034;2022-11-18T07:41:04;101671.97;;;2.63;100.00
18821;BME280;9539;59.332;18.034;2022-11-18T07:43:32;101672.59;;;2.84;100.00
18821;BME280;9539;59.332;18.034;2022-11-18T07:46:08;101681.25;;;2.87;100.00
18821;BME280;9539;59.332;18.034;2022-11-18T07:48:34;101684.19;;;2.64;100.00
18821;BME280;9539;59.332;18.034;2022-11-18T07:51:03;101678.09;;;2.62;100.00
18821;BME280;9539;59.332;18.034;2022-11-18T07:53:30;101675.41;;;2.67;100.00
18821;BME280;9539;59.332;18.034;2022-11-18T07:55:57;101680.00;;;2.53;100.00
18821;BME280;9539;59.332;18.034;2022-11-18T07:58:24;101679.88;;;2.60;100.00
18821;BME280;9539;59.332;18.034;2022-11-18T08:00:50;101686.56;;;2.84;100.00
18821;BME280;9539;59.332;18.034;2022-11-18T08:03:17;101679.69;;;2.75;100.00
18821;BME280;9539;59.332;18.034;2022-11-18T08:05:44;101675.38;;;2.71;100.00
18821;BME280;9539;59.332;18.034;2022-11-18T08:08:12;101690.31;;;2.63;100.00
18821;BME280;9539;59.332;18.034;2022-11-18T08:10:39;101691.88;;;2.78;100.00
18821;BME280;9539;59.332;18.034;2022-11-18T08:13:06;101691.88;;;2.78;100.00
18821;BME280;9539;59.332;18.034;2022-11-18T08:15:32;101679.78;;;2.68;100.00
18821;BME280;9539;59.332;18.034;2022-11-18T08:17:59;101674.53;;;2.66;100.00
18821;BME280;9539;59.332;18.034;2022-11-18T08:20:26;101683.06;;;2.82;100.00
18821;BME280;9539;59.332;18.034;2022-11-18T08:22:53;101688.41;;;2.76;100.00
18821;BME280;9539;59.332;18.034;2022-11-18T08:25:21;101690.69;;;3.00;100.00
18821;BME280;9539;59.332;18.034;2022-11-18T08:27:48;101678.03;;;3.25;100.00
18821;BME280;9539;59.332;18.034;2022-11-18T08:30:14;101683.28;;;3.27;100.00
18821;BME280;9539;59.332;18.034;2022-11-18T08:32:41;101682.63;;;3.12;100.00
18821;BME280;9539;59.332;18.034;2022-11-18T08:35:09;101686.75;;;3.30;100.00
18821;BME280;9539;59.332;18.034;2022-11-18T08:37:35;101685.78;;;3.34;100.00
18821;BME280;9539;59.332;18.034;2022-11-18T08:40:03;101681.50;;;3.30;100.00
18821;BME280;9539;59.332;18.034;2022-11-18T08:42:31;101675.53;;;3.19;100.00
18821;BME280;9539;59.332;18.034;2022-11-18T08:44:59;101686.75;;;3.30;100.00
18821;BME280;9539;59.332;18.034;2022-11-18T08:47:26;101693.19;;;3.08;100.00
18821;BME280;9539;59.332;18.034;2022-11-18T08:49:52;101691.34;;;3.14;100.00
18821;BME280;9539;59.332;18.034;2022-11-18T08:52:19;101700.06;;;3.16;100.00
18821;BME280;9539;59.332;18.034;2022-11-18T08:54:46;101702.78;;;3.10;100.00
18821;BME280;9539;59.332;18.034;2022-11-18T08:57:13;101703.72;;;3.05;100.00
18821;BME280;9539;59.332;18.034;2022-11-18T08:59:41;101700.97;;;3.14;100.00
18821;BME280;9539;59.332;18.034;2022-11-18T09:02:12;101708.84;;;3.12;100.00
18821;BME280;9539;59.332;18.034;2022-11-18T09:04:39;101708.91;;;3.09;100.00
18821;BME280;9539;59.332;18.034;2022-11-18T09:07:06;101703.38;;;3.28;100.00
18821;BME280;9539;59.332;18.034;2022-11-18T09:09:33;101709.53;;;3.25;100.00
18821;BME280;9539;59.332;18.034;2022-11-18T09:12:00;101705.56;;;2.98;100.00
18821;BME280;9539;59.332;18.034;2022-11-18T09:14:27;101697.16;;;3.33;100.00
18821;BME280;9539;59.332;18.034;2022-11-18T09:16:55;101695.59;;;3.75;100.00
18821;BME280;9539;59.332;18.034;2022-11-18T09:19:22;101707.81;;;3.76;100.00
18821;BME280;9539;59.332;18.034;2022-11-18T09:21:49;101703.91;;;4.00;100.00
18821;BME280;9539;59.332;18.034;2022-11-18T09:24:16;101701.66;;;4.25;100.00
18821;BME280;9539;59.332;18.034;2022-11-18T09:26:43;101698.75;;;4.40;100.00
18821;BME280;9539;59.332;18.034;2022-11-18T09:29:10;101689.19;;;3.90;100.00
18821;BME280;9539;59.332;18.034;2022-11-18T09:31:37;101687.84;;;3.69;100.00
18821;BME280;9539;59.332;18.034;2022-11-18T09:34:05;101694.19;;;3.56;100.00
18821;BME280;9539;59.332;18.034;2022-11-18T09:36:34;101693.41;;;3.49;100.00
18821;BME280;9539;59.332;18.034;2022-11-18T09:39:03;101682.94;;;3.48;100.00
18821;BME280;9539;59.332;18.034;2022-11-18T09:41:41;101692.59;;;3.46;100.00
18821;BME280;9539;59.332;18.034;2022-11-18T09:44:19;101701.19;;;3.54;100.00
18821;BME280;9539;59.332;18.034;2022-11-18T09:47:02;101692.78;;;3.34;100.00
18821;BME280;9539;59.332;18.034;2022-11-18T09:49:36;101696.22;;;3.37;100.00
18821;BME280;9539;59.332;18.034;2022-11-18T09:52:09;101697.25;;;3.27;100.00
18821;BME280;9539;59.332;18.034;2022-11-18T09:54:37;101694.72;;;3.24;100.00
18821;BME280;9539;59.332;18.034;2022-11-18T09:57:10;101706.88;;;3.28;100.00
18821;BME280;9539;59.332;18.034;2022-11-18T09:59:39;101701.84;;;3.13;100.00
18821;BME280;9539;59.332;18.034;2022-11-18T10:02:25;101703.03;;;3.49;100.00
18821;BME280;9539;59.332;18.034;2022-11-18T10:04:55;101704.56;;;4.11;100.00
18821;BME280;9539;59.332;18.034;2022-11-18T10:07:29;101707.03;;;3.70;100.00
18821;BME280;9539;59.332;18.034;2022-11-18T10:10:01;101711.47;;;3.69;100.00
18821;BME280;9539;59.332;18.034;2022-11-18T10:12:34;101700.16;;;3.64;100.00
18821;BME280;9539;59.332;18.034;2022-11-18T10:15:15;101707.63;;;3.36;100.00
18821;BME280;9539;59.332;18.034;2022-11-18T10:17:51;101712.88;;;3.36;100.00
18821;BME280;9539;59.332;18.034;2022-11-18T10:20:30;101718.84;;;3.44;100.00
18821;BME280;9539;59.332;18.034;2022-11-18T10:23:02;101711.94;;;3.39;100.00
18821;BME280;9539;59.332;18.034;2022-11-18T10:25:30;101712.91;;;3.32;100.00
18821;BME280;9539;59.332;18.034;2022-11-18T10:28:13;101711.91;;;3.40;100.00
18821;BME280;9539;59.332;18.034;2022-11-18T10:30:40;101706.69;;;3.39;100.00
18821;BME280;9539;59.332;18.034;2022-11-18T10:33:22;101709.31;;;3.37;100.00
18821;BME280;9539;59.332;18.034;2022-11-18T10:36:11;101707.75;;;3.29;100.00
18821;BME280;9539;59.332;18.034;2022-11-18T10:38:38;101711.03;;;3.41;100.00
18821;BME280;9539;59.332;18.034;2022-11-18T10:41:07;101716.56;;;3.23;100.00
18821;BME280;9539;59.332;18.034;2022-11-18T10:43:48;101703.38;;;3.29;100.00
18821;BME280;9539;59.332;18.034;2022-11-18T10:46:23;101705.13;;;3.29;100.00
18821;BME280;9539;59.332;18.034;2022-11-18T10:49:11;101707.31;;;3.56;100.00
18821;BME280;9539;59.332;18.034;2022-11-18T10:51:41;101698.78;;;3.43;100.00
18821;BME280;9539;59.332;18.034;2022-11-18T10:54:13;101703.91;;;3.49;100.00
18821;BME280;9539;59.332;18.034;2022-11-18T10:56:44;101703.13;;;3.93;100.00
18821;BME280;9539;59.332;18.034;2022-11-18T10:59:20;101704.06;;;3.89;100.00
18821;BME280;9539;59.332;18.034;2022-11-18T11:01:59;101707.22;;;3.59;100.00
18821;BME280;9539;59.332;18.034;2022-11-18T11:04:27;101715.72;;;3.75;100.00
18821;BME280;9539;59.332;18.034;2022-11-18T11:06:57;101726.00;;;3.36;100.00
18821;BME280;9539;59.332;18.034;2022-11-18T11:09:28;101716.16;;;3.49;100.00
18821;BME280;9539;59.332;18.034;2022-11-18T11:11:57;101716.09;;;3.53;100.00
18821;BME280;9539;59.332;18.034;2022-11-18T11:14:29;101735.03;;;3.15;100.00
18821;BME280;9539;59.332;18.034;2022-11-18T11:17:09;101719.22;;;3.20;100.00
18821;BME280;9539;59.332;18.034;2022-11-18T11:19:46;101716.78;;;3.08;100.00
18821;BME280;9539;59.332;18.034;2022-11-18T11:22:16;101718.38;;;3.18;100.00
18821;BME280;9539;59.332;18.034;2022-11-18T11:24:43;101710.38;;;3.27;100.00
18821;BME280;9539;59.332;18.034;2022-11-18T11:27:20;101720.13;;;3.19;100.00
18821;BME280;9539;59.332;18.034;2022-11-18T11:30:04;101709.69;;;3.14;100.00
18821;BME280;9539;59.332;18.034;2022-11-18T11:32:45;101720.94;;;3.22;100.00
18821;BME280;9539;59.332;18.034;2022-11-18T11:35:22;101715.72;;;3.19;100.00
18821;BME280;9539;59.332;18.034;2022-11-18T11:37:54;101707.25;;;3.04;100.00
18821;BME280;9539;59.332;18.034;2022-11-18T11:40:27;101718.22;;;3.29;100.00
18821;BME280;9539;59.332;18.034;2022-11-18T11:43:10;101700.53;;;3.43;100.00
18821;BME280;9539;59.332;18.034;2022-11-18T11:45:57;101720.84;;;3.29;100.00
18821;BME280;9539;59.332;18.034;2022-11-18T11:48:37;101720.78;;;3.32;100.00
18821;BME280;9539;59.332;18.034;2022-11-18T11:51:15;101709.38;;;3.36;100.00
18821;BME280;9539;59.332;18.034;2022-11-18T11:53:52;101707.97;;;3.13;100.00
18821;BME280;9539;59.332;18.034;2022-11-18T11:56:27;101710.84;;;2.95;100.00
18821;BME280;9539;59.332;18.034;2022-11-18T11:59:17;101704.91;;;3.41;100.00
18821;BME280;9539;59.332;18.034;2022-11-18T12:01:57;101706.25;;;3.66;100.00
18821;BME280;9539;59.332;18.034;2022-11-18T12:04:41;101701.56;;;3.31;100.00
18821;BME280;9539;59.332;18.034;2022-11-18T12:07:15;101706.81;;;3.31;100.00
18821;BME280;9539;59.332;18.034;2022-11-18T12:12:45;101713.88;;;3.26;100.00
18821;BME280;9539;59.332;18.034;2022-11-18T12:15:36;101706.84;;;3.30;100.00
18821;BME280;9539;59.332;18.034;2022-11-18T12:18:11;101702.44;;;3.32;100.00
18821;BME280;9539;59.332;18.034;2022-11-18T12:20:43;101696.00;;;3.51;100.00
18821;BME280;9539;59.332;18.034;2022-11-18T12:23:13;101705.56;;;2.98;100.00
18821;BME280;9539;59.332;18.034;2022-11-18T12:26:02;101712.72;;;2.86;100.00
18821;BME280;9539;59.332;18.034;2022-11-18T12:28:32;101703.16;;;2.83;100.00
18821;BME280;9539;59.332;18.034;2022-11-18T12:31:33;101700.31;;;2.98;100.00
18821;BME280;9539;59.332;18.034;2022-11-18T12:34:03;101707.94;;;3.16;100.00
18821;BME280;9539;59.332;18.034;2022-11-18T12:36:32;101703.59;;;3.12;100.00
18821;BME280;9539;59.332;18.034;2022-11-18T12:42:37;101710.25;;;2.76;100.00
18821;BME280;9539;59.332;18.034;2022-11-18T12:45:55;101710.06;;;2.89;100.00
18821;BME280;9539;59.332;18.034;2022-11-18T12:48:36;101705.44;;;3.06;100.00
18821;BME280;9539;59.332;18.034;2022-11-18T12:51:37;101709.19;;;2.90;100.00
18821;BME280;9539;59.332;18.034;2022-11-18T12:54:21;101713.03;;;2.64;100.00
18821;BME280;9539;59.332;18.034;2022-11-18T12:56:50;101707.25;;;3.02;100.00
18821;BME280;9539;59.332;18.034;2022-11-18T12:59:25;101710.88;;;2.92;100.00
18821;BME280;9539;59.332;18.034;2022-11-18T13:02:01;101717.31;;;2.70;100.00
18821;BME280;9539;59.332;18.034;2022-11-18T13:04:28;101717.22;;;2.77;100.00
18821;BME280;9539;59.332;18.034;2022-11-18T13:06:56;101707.47;;;2.87;100.00
18821;BME280;9539;59.332;18.034;2022-11-18T13:09:26;101706.84;;;2.67;100.00
18821;BME280;9539;59.332;18.034;2022-11-18T13:11:57;101705.28;;;2.55;100.00
18821;BME280;9539;59.332;18.034;2022-11-18T13:14:29;101706.13;;;2.59;100.00
18821;BME280;9539;59.332;18.034;2022-11-18T13:17:24;101705.59;;;2.95;100.00